Time;durP1;ratioP1;P1;durP2;ratioP2;P2;SDS_P1;SDS_P2;PMS_P1;PMS_P2;Temp;Humidity;BMP_temperature;BMP_pressure;BME280_temperature;BME280_humidity;BME280_pressure;Samples;Min_cycle;Max_cycle;Signal;HPM_P1;HPM_P2
2023/03/30 00:00:17;;;;;;;19.50;14.13;;;10.60;99.90;;;;;;5093052;28;20068;-50
2023/03/30 00:02:49;;;;;;;21.92;15.30;;;11.10;99.90;;;;;;5092934;28;20428;-48
2023/03/30 00:05:16;;;;;;;22.00;16.55;;;11.40;99.90;;;;;;5093207;28;20406;-47
2023/03/30 00:07:44;;;;;;;23.52;15.15;;;11.50;99.90;;;;;;5093074;28;20028;-48
2023/03/30 00:10:13;;;;;;;21.90;15.68;;;10.70;99.90;;;;;;5093073;28;20089;-48
2023/03/30 00:12:40;;;;;;;24.98;16.83;;;10.80;99.90;;;;;;5092621;28;20084;-48
2023/03/30 00:15:08;;;;;;;23.13;15.93;;;10.80;99.90;;;;;;5092765;28;20032;-47
2023/03/30 00:17:35;;;;;;;20.60;16.00;;;10.60;99.90;;;;;;5093043;28;20385;-48
2023/03/30 00:20:01;;;;;;;22.52;15.05;;;11.40;99.90;;;;;;5092886;28;20048;-47
2023/03/30 00:22:27;;;;;;;19.60;14.68;;;11.30;99.90;;;;;;5091720;28;20043;-48
2023/03/30 00:24:53;;;;;;;21.65;14.68;;;10.70;99.90;;;;;;5091163;28;20048;-47
2023/03/30 00:27:18;;;;;;;21.52;14.45;;;11.20;99.90;;;;;;5092652;28;20043;-46
2023/03/30 00:29:44;;;;;;;22.00;15.07;;;10.60;99.90;;;;;;5091370;28;20518;-48
2023/03/30 00:32:10;;;;;;;20.95;13.93;;;11.10;99.90;;;;;;5092473;28;20069;-48
2023/03/30 00:34:36;;;;;;;19.85;13.88;;;10.70;99.90;;;;;;5091709;28;20081;-48
2023/03/30 00:37:02;;;;;;;19.77;13.32;;;11.30;99.90;;;;;;5091972;28;20044;-47
2023/03/30 00:39:27;;;;;;;18.63;12.43;;;11.10;99.90;;;;;;5092526;28;20094;-50
2023/03/30 00:41:53;;;;;;;20.00;12.95;;;11.40;99.90;;;;;;5092418;28;20572;-48
2023/03/30 00:44:56;;;;;;;21.42;12.90;;;10.80;99.90;;;;;;5092323;28;20046;-47
2023/03/30 00:47:23;;;;;;;20.52;11.80;;;11.20;99.90;;;;;;5092184;28;20048;-48
2023/03/30 00:49:48;;;;;;;19.42;11.75;;;11.30;99.90;;;;;;5092066;28;20115;-48
2023/03/30 00:52:18;;;;;;;18.88;12.25;;;10.80;99.90;;;;;;5092213;28;20180;-47
2023/03/30 00:54:45;;;;;;;16.13;11.65;;;11.50;99.90;;;;;;5074478;28;20047;-51
2023/03/30 00:57:11;;;;;;;17.83;11.00;;;11.00;99.90;;;;;;5092328;28;20138;-47
2023/03/30 00:59:37;;;;;;;19.45;11.68;;;11.30;99.90;;;;;;5091928;28;20480;-52
2023/03/30 01:02:02;;;;;;;15.65;11.10;;;11.20;99.90;;;;;;5091677;28;20047;-50
2023/03/30 01:04:28;;;;;;;17.42;10.48;;;11.40;99.90;;;;;;5092657;28;20074;-53
2023/03/30 01:06:56;;;;;;;17.48;10.35;;;11.50;99.90;;;;;;5092074;28;20442;-48
2023/03/30 01:09:23;;;;;;;18.70;10.38;;;10.90;99.90;;;;;;5090839;28;20047;-47
2023/03/30 01:11:49;;;;;;;17.90;10.93;;;11.10;99.90;;;;;;5091875;28;20484;-48
2023/03/30 01:14:16;;;;;;;15.65;9.30;;;11.00;99.90;;;;;;5091846;28;20059;-51
2023/03/30 01:17:03;;;;;;;14.27;9.43;;;11.60;99.90;;;;;;5074190;28;20126;-50
2023/03/30 01:19:43;;;;;;;16.67;9.30;;;11.60;99.90;;;;;;5091542;28;20054;-50
2023/03/30 01:22:17;;;;;;;17.98;10.20;;;11.30;99.90;;;;;;5091935;28;20080;-49
2023/03/30 01:25:21;;;;;;;16.00;9.68;;;11.40;99.90;;;;;;5091918;28;20051;-47
2023/03/30 01:28:14;;;;;;;17.92;9.52;;;11.60;99.90;;;;;;5092113;28;20044;-52
2023/03/30 01:31:04;;;;;;;15.02;9.60;;;11.50;99.90;;;;;;5091816;28;20047;-50
2023/03/30 01:33:39;;;;;;;17.77;9.10;;;11.60;99.90;;;;;;5091821;28;20044;-47
2023/03/30 01:36:31;;;;;;;16.58;9.25;;;11.60;99.90;;;;;;5091521;28;20040;-49
2023/03/30 01:39:27;;;;;;;13.90;8.95;;;11.00;99.90;;;;;;5091224;28;20067;-50
2023/03/30 01:42:17;;;;;;;17.95;9.43;;;11.30;99.90;;;;;;5090396;28;20130;-49
2023/03/30 01:45:02;;;;;;;15.68;9.70;;;11.60;99.90;;;;;;5090634;28;20503;-48
2023/03/30 01:47:49;;;;;;;15.65;9.07;;;11.40;99.90;;;;;;5094300;28;20443;-48
2023/03/30 01:50:32;;;;;;;13.77;8.55;;;11.30;99.90;;;;;;5092620;28;20040;-47
2023/03/30 01:53:24;;;;;;;16.75;8.68;;;11.30;99.90;;;;;;5095679;28;20097;-48
2023/03/30 01:56:05;;;;;;;15.88;8.75;;;11.50;99.90;;;;;;5095682;28;20182;-49
2023/03/30 01:58:45;;;;;;;14.82;8.23;;;11.60;99.90;;;;;;5095701;28;20046;-49
2023/03/30 02:01:13;;;;;;;15.32;8.15;;;11.40;99.90;;;;;;5095440;28;20559;-48
2023/03/30 02:03:42;;;;;;;13.63;8.30;;;11.60;99.90;;;;;;5095631;28;20040;-47
2023/03/30 02:06:23;;;;;;;15.10;7.68;;;11.40;99.90;;;;;;5095242;28;20389;-47
2023/03/30 02:08:51;;;;;;;17.70;7.72;;;11.30;99.90;;;;;;5095445;28;20044;-48
2023/03/30 02:11:17;;;;;;;12.93;7.13;;;11.30;99.90;;;;;;5095104;28;20114;-47
2023/03/30 02:13:44;;;;;;;14.68;7.22;;;11.30;99.90;;;;;;5095286;28;20040;-52
2023/03/30 02:16:21;;;;;;;12.35;7.10;;;11.00;99.90;;;;;;5095177;28;20036;-50
2023/03/30 02:18:47;;;;;;;15.82;7.07;;;11.00;99.90;;;;;;5076938;28;20040;-48
2023/03/30 02:21:13;;;;;;;13.82;6.57;;;11.40;99.90;;;;;;5095185;28;20036;-52
2023/03/30 02:23:42;;;;;;;16.85;6.90;;;11.50;99.90;;;;;;5094995;28;20078;-48
2023/03/30 02:26:09;;;;;;;11.63;6.90;;;11.50;99.90;;;;;;5093731;28;20047;-51
2023/03/30 02:28:35;;;;;;;10.60;6.25;;;11.30;99.90;;;;;;5095059;28;20123;-48
2023/03/30 02:31:02;;;;;;;11.27;6.13;;;11.10;99.90;;;;;;5094748;28;20122;-47
2023/03/30 02:33:53;;;;;;;14.57;6.00;;;11.40;99.90;;;;;;5094822;28;20052;-49
2023/03/30 02:36:38;;;;;;;12.02;5.80;;;11.40;99.90;;;;;;5074927;28;20044;-48
2023/03/30 02:39:38;;;;;;;11.05;5.43;;;11.20;99.90;;;;;;5093354;28;20094;-51
2023/03/30 02:42:15;;;;;;;12.07;5.78;;;11.30;99.90;;;;;;5094484;28;20043;-49
2023/03/30 02:44:55;;;;;;;11.90;5.72;;;11.60;99.90;;;;;;5094655;28;20044;-48
2023/03/30 02:47:34;;;;;;;14.07;5.78;;;11.20;99.90;;;;;;5094657;28;20097;-48
2023/03/30 02:50:29;;;;;;;13.77;5.28;;;11.50;99.90;;;;;;5094313;28;20097;-50
2023/03/30 02:53:00;;;;;;;13.45;5.30;;;11.50;99.90;;;;;;5087795;28;20048;-46
2023/03/30 02:55:33;;;;;;;10.43;4.73;;;11.40;99.90;;;;;;5094458;28;20089;-49
2023/03/30 02:58:13;;;;;;;14.18;5.32;;;11.60;99.90;;;;;;5093233;28;20040;-48
2023/03/30 03:01:17;;;;;;;14.13;4.88;;;11.40;99.90;;;;;;5094219;28;20500;-48
2023/03/30 03:03:46;;;;;;;11.02;5.10;;;11.60;99.90;;;;;;5094347;28;20059;-47
2023/03/30 03:06:14;;;;;;;10.07;4.70;;;11.70;99.90;;;;;;5094218;28;20048;-47
2023/03/30 03:08:42;;;;;;;11.80;4.63;;;11.60;99.90;;;;;;5093190;28;20101;-48
2023/03/30 03:11:09;;;;;;;10.57;4.57;;;11.80;99.90;;;;;;5093880;28;20063;-47
2023/03/30 03:13:36;;;;;;;13.20;5.40;;;11.80;99.90;;;;;;5094127;28;20051;-50
2023/03/30 03:16:09;;;;;;;10.90;4.38;;;11.50;99.90;;;;;;5093951;28;20072;-49
2023/03/30 03:18:38;;;;;;;8.60;4.00;;;11.50;99.90;;;;;;5093640;28;20488;-52
2023/03/30 03:21:06;;;;;;;10.88;4.45;;;11.60;99.90;;;;;;5093794;28;20107;-47
2023/03/30 03:23:31;;;;;;;10.98;4.70;;;11.80;99.90;;;;;;5094050;28;20040;-48
2023/03/30 03:25:59;;;;;;;10.13;4.72;;;11.60;99.90;;;;;;5093614;28;20043;-52
2023/03/30 03:28:25;;;;;;;10.05;4.47;;;11.90;99.90;;;;;;5093850;28;20051;-48
2023/03/30 03:30:51;;;;;;;10.50;4.53;;;11.80;99.90;;;;;;5093951;28;20106;-48
2023/03/30 03:33:19;;;;;;;13.07;4.25;;;11.40;99.90;;;;;;5093629;28;20040;-47
2023/03/30 03:35:45;;;;;;;10.32;4.40;;;11.50;99.90;;;;;;5093701;28;20085;-47
2023/03/30 03:38:12;;;;;;;15.07;5.03;;;11.40;99.90;;;;;;5093439;28;20052;-52
2023/03/30 03:40:39;;;;;;;13.73;5.60;;;11.40;99.90;;;;;;5093536;28;20044;-49
2023/03/30 03:43:05;;;;;;;14.95;4.43;;;11.90;99.90;;;;;;5093306;28;20397;-47
2023/03/30 03:45:31;;;;;;;9.52;4.55;;;11.60;99.90;;;;;;5093533;28;20048;-48
2023/03/30 03:47:57;;;;;;;11.77;4.03;;;11.90;99.90;;;;;;5093221;28;20373;-48
2023/03/30 03:50:22;;;;;;;13.02;5.03;;;11.70;99.90;;;;;;5093128;28;20137;-52
2023/03/30 03:52:48;;;;;;;11.25;4.47;;;11.80;99.90;;;;;;5093256;28;20028;-51
2023/03/30 03:55:14;;;;;;;10.85;5.28;;;11.80;99.90;;;;;;5093332;28;20040;-50
2023/03/30 03:57:40;;;;;;;13.40;3.95;;;11.50;99.90;;;;;;5093124;28;20101;-50
2023/03/30 04:00:15;;;;;;;12.75;4.60;;;11.40;99.90;;;;;;5093373;28;20476;-50
2023/03/30 04:02:42;;;;;;;16.98;4.82;;;11.40;99.90;;;;;;5091830;28;20100;-49
2023/03/30 04:05:08;;;;;;;13.60;4.20;;;11.60;99.90;;;;;;5093298;28;20047;-48
2023/03/30 04:07:35;;;;;;;11.85;4.50;;;11.50;99.90;;;;;;5093032;28;20087;-47
2023/03/30 04:10:02;;;;;;;12.48;4.50;;;11.50;99.90;;;;;;5091600;28;20123;-48
2023/03/30 04:12:29;;;;;;;13.43;4.30;;;11.50;99.90;;;;;;5092753;28;20036;-49
2023/03/30 04:14:55;;;;;;;13.73;4.50;;;11.50;99.90;;;;;;5093038;28;20036;-50
2023/03/30 04:17:22;;;;;;;9.02;4.00;;;11.40;99.90;;;;;;5092750;28;20044;-48
2023/03/30 04:19:55;;;;;;;9.57;3.83;;;11.40;99.90;;;;;;5092705;28;20052;-48
2023/03/30 04:22:25;;;;;;;14.77;4.10;;;11.40;99.90;;;;;;5092742;28;20044;-48
2023/03/30 04:24:54;;;;;;;9.25;3.58;;;11.40;99.90;;;;;;5092690;28;20467;-50
2023/03/30 04:27:19;;;;;;;15.20;3.78;;;11.60;99.90;;;;;;5092400;28;20453;-49
2023/03/30 04:29:45;;;;;;;10.80;3.65;;;11.40;99.90;;;;;;5092573;28;20118;-47
2023/03/30 04:32:11;;;;;;;9.75;3.30;;;11.60;99.90;;;;;;5092621;28;20089;-47
2023/03/30 04:34:41;;;;;;;10.43;3.58;;;11.60;99.90;;;;;;5092163;28;20073;-47
2023/03/30 04:37:08;;;;;;;12.63;3.35;;;11.80;99.90;;;;;;5092295;28;20043;-48
2023/03/30 04:39:34;;;;;;;12.50;3.90;;;11.80;99.90;;;;;;5092385;28;20093;-48
2023/03/30 04:42:03;;;;;;;18.10;3.63;;;11.40;99.90;;;;;;5092396;28;20412;-48
2023/03/30 04:44:29;;;;;;;12.20;3.47;;;11.40;99.90;;;;;;5092287;28;20097;-48
2023/03/30 04:46:55;;;;;;;11.00;3.28;;;11.70;99.90;;;;;;5090863;28;20177;-49
2023/03/30 04:49:21;;;;;;;13.18;3.88;;;11.80;99.90;;;;;;5090727;28;20479;-48
2023/03/30 04:51:47;;;;;;;12.05;3.38;;;11.40;99.90;;;;;;5090696;28;20031;-47
2023/03/30 04:54:13;;;;;;;12.43;3.67;;;11.70;99.90;;;;;;5090776;28;20044;-51
2023/03/30 04:56:39;;;;;;;12.48;2.97;;;11.80;99.90;;;;;;5090794;28;20047;-49
2023/03/30 04:59:04;;;;;;;13.45;3.40;;;11.50;99.90;;;;;;5089315;28;20044;-49
2023/03/30 05:01:30;;;;;;;10.63;3.17;;;11.80;99.90;;;;;;5090799;28;20097;-49
2023/03/30 05:03:56;;;;;;;11.52;3.53;;;11.40;99.90;;;;;;5090575;28;20410;-47
2023/03/30 05:06:22;;;;;;;11.65;3.38;;;11.70;99.90;;;;;;5089111;28;20051;-49
2023/03/30 05:08:47;;;;;;;11.25;3.47;;;11.50;99.90;;;;;;5090694;28;20118;-52
2023/03/30 05:11:13;;;;;;;15.77;3.47;;;11.90;99.90;;;;;;5090710;28;20404;-47
2023/03/30 05:13:39;;;;;;;9.23;3.15;;;11.80;99.90;;;;;;5090470;28;20036;-48
2023/03/30 05:16:05;;;;;;;13.77;3.05;;;11.50;99.90;;;;;;5090721;28;20115;-49
2023/03/30 05:18:31;;;;;;;11.05;3.00;;;11.70;99.90;;;;;;5090465;28;20039;-49
2023/03/30 05:20:57;;;;;;;8.82;3.03;;;11.90;99.90;;;;;;5090498;28;20044;-50
2023/03/30 05:23:24;;;;;;;12.40;3.20;;;11.40;99.90;;;;;;5097154;28;20054;-47
2023/03/30 05:25:50;;;;;;;12.60;3.45;;;11.50;99.90;;;;;;5097497;28;20032;-51
2023/03/30 05:28:16;;;;;;;11.82;3.50;;;11.80;99.90;;;;;;5097067;28;20050;-49
2023/03/30 05:30:43;;;;;;;20.23;4.18;;;11.90;99.90;;;;;;5096077;28;20447;-48
2023/03/30 05:33:08;;;;;;;17.30;4.90;;;11.50;99.90;;;;;;5096107;28;20051;-50
2023/03/30 05:35:35;;;;;;;16.98;3.20;;;11.70;99.90;;;;;;5095358;28;20119;-48
2023/03/30 05:38:02;;;;;;;8.55;2.88;;;11.60;99.90;;;;;;5095696;28;20121;-48
2023/03/30 05:40:29;;;;;;;12.40;3.30;;;11.80;99.90;;;;;;5096876;28;20504;-51
2023/03/30 05:42:54;;;;;;;12.90;3.28;;;11.60;99.90;;;;;;5096959;28;20448;-50
2023/03/30 05:45:20;;;;;;;15.25;3.53;;;11.60;99.90;;;;;;5097387;28;20043;-50
2023/03/30 05:47:46;;;;;;;12.50;3.22;;;11.50;99.90;;;;;;5096843;28;20035;-52
2023/03/30 05:50:11;;;;;;;14.77;3.45;;;11.60;99.90;;;;;;5095370;28;20093;-51
2023/03/30 05:52:37;;;;;;;13.75;3.15;;;11.60;99.90;;;;;;5096934;28;20051;-48
2023/03/30 05:55:03;;;;;;;13.82;3.30;;;11.60;99.90;;;;;;5096919;28;20043;-48
2023/03/30 05:57:29;;;;;;;15.90;3.60;;;12.00;99.90;;;;;;5095586;28;20145;-49
2023/03/30 05:59:54;;;;;;;13.57;3.97;;;12.00;99.90;;;;;;5096711;28;20051;-47
2023/03/30 06:02:20;;;;;;;11.52;3.22;;;11.60;99.90;;;;;;5096968;28;20039;-49
2023/03/30 06:04:46;;;;;;;14.98;3.30;;;12.00;99.90;;;;;;5096663;28;20498;-48
2023/03/30 06:07:12;;;;;;;16.73;3.78;;;12.10;99.90;;;;;;5096693;28;20426;-48
2023/03/30 06:09:37;;;;;;;12.35;3.65;;;11.80;99.90;;;;;;5095738;28;20105;-50
2023/03/30 06:12:04;;;;;;;13.77;3.50;;;12.00;99.90;;;;;;5097588;28;20177;-52
2023/03/30 06:14:29;;;;;;;11.13;3.22;;;12.00;99.90;;;;;;5097540;28;20479;-49
2023/03/30 06:16:55;;;;;;;12.70;3.70;;;12.10;99.90;;;;;;5097781;28;20030;-47
2023/03/30 06:19:21;;;;;;;16.00;4.60;;;11.70;99.90;;;;;;5096661;28;20517;-46
2023/03/30 06:21:47;;;;;;;14.48;3.95;;;11.70;99.90;;;;;;5097976;28;20068;-47
2023/03/30 06:24:13;;;;;;;11.93;4.20;;;11.80;99.90;;;;;;5097920;28;20507;-47
2023/03/30 06:26:40;;;;;;;12.27;3.08;;;11.80;99.90;;;;;;5098215;28;20047;-49
2023/03/30 06:29:05;;;;;;;12.00;3.35;;;11.80;99.90;;;;;;5096600;28;20131;-49
2023/03/30 06:31:32;;;;;;;13.52;4.05;;;11.80;99.90;;;;;;5097539;28;20146;-46
2023/03/30 06:33:58;;;;;;;11.52;3.28;;;11.80;99.90;;;;;;5093642;28;20036;-52
2023/03/30 06:36:24;;;;;;;9.85;3.40;;;12.20;99.90;;;;;;5092915;28;20036;-49
2023/03/30 06:38:49;;;;;;;11.07;3.50;;;11.90;99.90;;;;;;5093101;28;20504;-48
2023/03/30 06:41:15;;;;;;;12.00;3.70;;;12.30;99.90;;;;;;5091888;28;20052;-47
2023/03/30 06:43:41;;;;;;;12.70;4.13;;;12.00;99.90;;;;;;5093920;28;20039;-48
2023/03/30 06:46:07;;;;;;;11.90;3.58;;;12.00;99.90;;;;;;5094088;28;20044;-47
2023/03/30 06:48:33;;;;;;;11.82;4.10;;;12.20;99.90;;;;;;5092385;28;20107;-47
2023/03/30 06:50:59;;;;;;;12.50;3.67;;;12.10;99.90;;;;;;5089454;28;20592;-49
2023/03/30 06:53:25;;;;;;;14.63;3.63;;;12.30;99.90;;;;;;5083024;28;20040;-49
2023/03/30 06:55:56;;;;;;;14.80;4.32;;;12.30;99.90;;;;;;5080594;28;20037;-47
2023/03/30 06:58:23;;;;;;;12.73;3.90;;;12.20;99.90;;;;;;5087395;28;20051;-46
2023/03/30 07:00:49;;;;;;;13.50;3.05;;;12.00;99.90;;;;;;5092783;28;20043;-48
2023/03/30 07:03:17;;;;;;;15.70;3.40;;;11.90;99.90;;;;;;5093044;28;20052;-48
2023/03/30 07:05:47;;;;;;;14.63;3.30;;;12.20;99.90;;;;;;5092826;28;20503;-48
2023/03/30 07:08:13;;;;;;;14.27;4.22;;;12.30;99.90;;;;;;5093163;28;20063;-49
2023/03/30 07:10:39;;;;;;;14.30;3.08;;;12.30;99.90;;;;;;5093969;28;20562;-48
2023/03/30 07:13:06;;;;;;;15.32;3.38;;;12.00;99.90;;;;;;5093962;28;20079;-48
2023/03/30 07:15:32;;;;;;;16.98;3.42;;;12.00;99.90;;;;;;5093761;28;20078;-47
2023/03/30 07:17:58;;;;;;;18.40;3.53;;;12.10;99.90;;;;;;5093793;28;20610;-51
2023/03/30 07:20:24;;;;;;;17.90;4.00;;;12.30;99.90;;;;;;5093892;28;20488;-50
2023/03/30 07:22:50;;;;;;;14.80;3.90;;;12.20;99.90;;;;;;5093730;28;20109;-46
2023/03/30 07:25:16;;;;;;;16.73;3.53;;;12.30;99.90;;;;;;5093220;28;20432;-47
2023/03/30 07:27:42;;;;;;;16.00;3.90;;;12.20;99.90;;;;;;5093082;28;20045;-51
2023/03/30 07:30:09;;;;;;;19.63;4.45;;;12.30;99.90;;;;;;5092884;28;20044;-50
2023/03/30 07:32:35;;;;;;;14.80;3.30;;;12.30;99.90;;;;;;5093707;28;20133;-49
2023/03/30 07:35:01;;;;;;;17.50;3.85;;;12.30;99.90;;;;;;5093624;28;20040;-49
2023/03/30 07:37:27;;;;;;;19.92;3.60;;;12.20;99.90;;;;;;5093399;28;20051;-49
2023/03/30 07:39:55;;;;;;;18.02;3.90;;;12.20;99.90;;;;;;5093028;28;20099;-47
2023/03/30 07:42:22;;;;;;;20.92;3.65;;;11.80;99.90;;;;;;5092534;28;20075;-50
2023/03/30 07:44:47;;;;;;;17.33;3.60;;;11.80;99.90;;;;;;5092641;28;20488;-50
2023/03/30 07:47:14;;;;;;;17.60;3.28;;;12.10;99.90;;;;;;5093248;28;20086;-49
2023/03/30 07:49:39;;;;;;;19.13;4.07;;;12.00;99.90;;;;;;5091977;28;20214;-49
2023/03/30 07:52:06;;;;;;;19.27;4.32;;;12.00;99.90;;;;;;5093094;28;20480;-49
2023/03/30 07:54:32;;;;;;;19.75;4.22;;;12.00;99.90;;;;;;5093113;28;20161;-48
2023/03/30 07:56:58;;;;;;;17.90;4.18;;;11.80;99.90;;;;;;5092416;28;20476;-49
2023/03/30 07:59:24;;;;;;;18.58;4.13;;;11.70;99.90;;;;;;5075763;28;20048;-48
2023/03/30 08:01:50;;;;;;;20.15;4.25;;;11.60;99.90;;;;;;5071398;28;20520;-48
2023/03/30 08:04:17;;;;;;;26.77;4.32;;;11.60;99.90;;;;;;5071462;28;20046;-48
2023/03/30 08:06:43;;;;;;;26.20;5.53;;;11.90;99.90;;;;;;5071309;28;20516;-51
2023/03/30 08:09:09;;;;;;;25.42;4.78;;;11.30;99.90;;;;;;5071371;28;20121;-47
2023/03/30 08:11:35;;;;;;;25.45;5.03;;;11.30;99.90;;;;;;5071163;28;20048;-50
2023/03/30 08:14:02;;;;;;;25.40;5.05;;;11.70;99.90;;;;;;5071110;28;20044;-51
2023/03/30 08:16:28;;;;;;;18.98;3.88;;;11.70;99.90;;;;;;5071141;28;20396;-47
2023/03/30 08:18:53;;;;;;;25.88;4.63;;;11.50;99.90;;;;;;5070825;28;20032;-49
2023/03/30 08:21:24;;;;;;;20.98;4.75;;;11.70;99.90;;;;;;5070941;28;20051;-48
2023/03/30 08:23:51;;;;;;;18.45;4.35;;;11.50;99.90;;;;;;5069622;28;20056;-48
2023/03/30 08:26:17;;;;;;;20.77;4.30;;;11.60;99.90;;;;;;5070807;28;20045;-47
2023/03/30 08:28:42;;;;;;;27.27;4.70;;;11.70;99.90;;;;;;5070949;28;20048;-46
2023/03/30 08:31:09;;;;;;;26.40;4.80;;;11.70;99.90;;;;;;5072386;28;20044;-48
2023/03/30 08:33:35;;;;;;;22.38;4.80;;;11.30;99.90;;;;;;5072443;28;20783;-47
2023/03/30 08:36:02;;;;;;;21.85;4.60;;;11.20;99.90;;;;;;5072214;28;20028;-46
2023/03/30 08:38:28;;;;;;;24.67;4.90;;;11.50;99.90;;;;;;5072115;28;20400;-47
2023/03/30 08:40:54;;;;;;;18.23;4.03;;;11.40;99.90;;;;;;5071902;28;20121;-46
2023/03/30 08:43:40;;;;;;;23.95;5.45;;;11.40;99.90;;;;;;5070798;28;20037;-47
2023/03/30 08:46:12;;;;;;;24.02;4.78;;;11.70;99.90;;;;;;5072066;28;20614;-46
2023/03/30 08:48:41;;;;;;;21.65;4.40;;;11.50;99.90;;;;;;5079109;28;20107;-48
2023/03/30 08:51:19;;;;;;;20.20;4.38;;;11.70;99.90;;;;;;5091021;28;20135;-47
2023/03/30 08:53:46;;;;;;;22.40;4.97;;;11.60;99.90;;;;;;5092499;28;20126;-48
2023/03/30 08:56:27;;;;;;;19.88;4.13;;;11.60;99.90;;;;;;5091469;28;20111;-48
2023/03/30 08:59:37;;;;;;;19.50;4.43;;;11.20;99.90;;;;;;5092273;28;20078;-48
2023/03/30 09:02:13;;;;;;;22.83;6.18;;;11.30;99.90;;;;;;5058836;28;20048;-48
2023/03/30 09:04:56;;;;;;;22.80;4.97;;;11.80;99.90;;;;;;5092199;28;20078;-48
2023/03/30 09:07:28;;;;;;;22.20;4.90;;;11.80;99.90;;;;;;5092068;28;20051;-47
2023/03/30 09:09:56;;;;;;;25.58;4.40;;;11.90;99.90;;;;;;5092126;28;20054;-49
2023/03/30 09:12:40;;;;;;;28.50;5.13;;;11.90;99.90;;;;;;5091924;28;20044;-48
2023/03/30 09:15:09;;;;;;;23.70;4.88;;;12.20;99.90;;;;;;5090896;28;20442;-51
2023/03/30 09:17:49;;;;;;;26.25;3.97;;;12.30;99.90;;;;;;5091885;28;20079;-49
2023/03/30 09:20:21;;;;;;;22.63;4.05;;;12.30;99.90;;;;;;5091021;28;20076;-50
2023/03/30 09:22:48;;;;;;;;;;;12.30;99.90;;;;;;5092641;28;20376;-51
2023/03/30 09:25:17;;;;;;;27.13;4.47;;;12.40;99.90;;;;;;5092183;28;19916;-52
2023/03/30 09:28:07;;;;;;;24.63;4.65;;;12.40;99.90;;;;;;5091744;28;20559;-50
2023/03/30 09:30:50;;;;;;;19.58;4.43;;;12.70;99.90;;;;;;5091888;28;20101;-49
2023/03/30 09:33:46;;;;;;;19.30;3.80;;;12.50;99.90;;;;;;5091661;28;20036;-49
2023/03/30 09:36:37;;;;;;;20.17;4.65;;;12.70;99.90;;;;;;5090745;28;20532;-49
2023/03/30 09:39:18;;;;;;;16.60;3.78;;;12.70;99.90;;;;;;5091686;28;20503;-52
2023/03/30 09:42:03;;;;;;;19.77;3.38;;;12.50;99.90;;;;;;5091813;28;20036;-49
2023/03/30 09:44:42;;;;;;;18.08;3.35;;;12.60;99.90;;;;;;5091892;28;20040;-48
2023/03/30 09:47:34;;;;;;;22.75;3.78;;;12.70;99.90;;;;;;5091680;28;20377;-50
2023/03/30 09:50:08;;;;;;;18.73;3.67;;;12.60;99.90;;;;;;5091603;28;20115;-48
2023/03/30 09:52:37;;;;;;;20.33;3.97;;;12.60;99.90;;;;;;5091938;28;20055;-48
2023/03/30 09:55:21;;;;;;;17.75;3.13;;;12.60;99.90;;;;;;5091517;28;20040;-49
2023/03/30 09:57:51;;;;;;;16.10;3.40;;;12.50;99.90;;;;;;5091536;28;20411;-51
2023/03/30 10:00:38;;;;;;;20.88;3.42;;;12.30;99.90;;;;;;5091594;28;20040;-50
2023/03/30 10:03:16;;;;;;;17.50;3.40;;;12.40;99.90;;;;;;5091626;28;20075;-49
2023/03/30 10:05:42;;;;;;;17.23;3.30;;;12.30;99.90;;;;;;5091443;28;20492;-47
2023/03/30 10:08:21;;;;;;;21.25;3.72;;;12.30;99.90;;;;;;5092082;28;20038;-48
2023/03/30 10:10:53;;;;;;;19.02;4.20;;;12.30;99.90;;;;;;5095112;28;20531;-50
2023/03/30 10:13:32;;;;;;;16.20;2.90;;;12.20;99.90;;;;;;5095298;28;22014;-48
2023/03/30 10:16:06;;;;;;;16.25;3.83;;;12.30;99.90;;;;;;5095563;28;20044;-50
2023/03/30 10:18:45;;;;;;;17.67;3.55;;;12.40;99.90;;;;;;5084877;28;20029;-48
2023/03/30 10:21:21;;;;;;;15.75;3.50;;;12.50;99.90;;;;;;5093268;28;20040;-50
2023/03/30 10:24:07;;;;;;;16.92;2.67;;;12.50;99.90;;;;;;5095169;28;20043;-49
2023/03/30 10:26:36;;;;;;;15.98;3.22;;;12.50;99.90;;;;;;5094935;28;20487;-48
2023/03/30 10:29:09;;;;;;;17.42;2.95;;;12.60;99.90;;;;;;5094858;28;20067;-48
2023/03/30 10:31:37;;;;;;;15.45;3.15;;;12.40;99.90;;;;;;5094676;28;20040;-49
2023/03/30 10:34:13;;;;;;;16.17;2.92;;;12.40;99.90;;;;;;5094774;28;20048;-48
2023/03/30 10:36:39;;;;;;;16.90;3.03;;;12.40;99.90;;;;;;5094929;28;20036;-47
2023/03/30 10:39:24;;;;;;;19.40;3.33;;;12.50;99.90;;;;;;5094509;28;20426;-52
2023/03/30 10:41:51;;;;;;;21.52;4.22;;;12.60;99.90;;;;;;5094665;28;20036;-47
2023/03/30 10:44:40;;;;;;;23.30;3.65;;;12.60;99.90;;;;;;5093386;28;20051;-49
2023/03/30 10:47:24;;;;;;;26.83;4.00;;;12.70;99.90;;;;;;5094847;28;20048;-48
2023/03/30 10:50:20;;;;;;;19.88;3.75;;;12.70;99.90;;;;;;5093419;28;20075;-48
2023/03/30 10:52:52;;;;;;;22.45;3.78;;;12.60;99.90;;;;;;5093520;28;20369;-48
2023/03/30 10:55:39;;;;;;;21.38;4.55;;;12.70;99.90;;;;;;5094348;28;20502;-48
2023/03/30 10:58:26;;;;;;;23.65;3.70;;;12.70;99.90;;;;;;5094387;28;20085;-47
2023/03/30 11:01:07;;;;;;;18.88;3.80;;;12.70;99.90;;;;;;5094670;28;20047;-48
2023/03/30 11:03:35;;;;;;;18.75;4.05;;;12.80;99.90;;;;;;5094362;28;20040;-49
2023/03/30 11:06:25;;;;;;;27.80;4.78;;;12.60;99.90;;;;;;5094384;28;20055;-48
2023/03/30 11:08:53;;;;;;;26.10;4.32;;;13.00;99.90;;;;;;5094133;28;20036;-52
2023/03/30 11:11:21;;;;;;;17.90;3.85;;;12.90;99.90;;;;;;5093849;28;20046;-49
2023/03/30 11:13:56;;;;;;;23.42;4.10;;;12.90;99.90;;;;;;5092467;28;20101;-48
2023/03/30 11:16:44;;;;;;;25.67;4.95;;;13.00;99.90;;;;;;5093677;28;20540;-49
2023/03/30 11:19:18;;;;;;;26.48;4.25;;;13.20;99.90;;;;;;5092634;28;20089;-48
2023/03/30 11:21:50;;;;;;;20.13;4.15;;;13.10;99.90;;;;;;5092841;28;20384;-47
2023/03/30 11:24:20;;;;;;;19.30;3.05;;;13.00;99.90;;;;;;5093649;28;20051;-47
2023/03/30 11:27:26;;;;;;;25.23;4.00;;;13.10;99.90;;;;;;5093715;28;20035;-49
2023/03/30 11:30:18;;;;;;;19.33;3.67;;;13.20;99.90;;;;;;5092535;28;20490;-49
2023/03/30 11:33:10;;;;;;;22.92;5.25;;;13.10;99.90;;;;;;5093715;28;20429;-50
2023/03/30 11:35:49;;;;;;;28.40;6.28;;;13.30;99.90;;;;;;5093672;28;20467;-48
2023/03/30 11:38:21;;;;;;;16.40;3.25;;;13.30;99.90;;;;;;5093475;28;20067;-51
2023/03/30 11:40:54;;;;;;;20.93;4.23;;;13.30;99.90;;;;;;5093722;28;20072;-48
2023/03/30 11:43:27;;;;;;;21.40;4.55;;;13.40;99.90;;;;;;5093428;28;20551;-51
2023/03/30 11:46:07;;;;;;;20.02;3.60;;;13.20;99.90;;;;;;5093613;28;20043;-52
2023/03/30 11:48:56;;;;;;;20.30;4.03;;;13.30;99.90;;;;;;5093148;28;20039;-50
2023/03/30 11:51:51;;;;;;;24.70;4.07;;;13.30;99.90;;;;;;5093456;28;20394;-47
2023/03/30 11:54:41;;;;;;;22.42;4.63;;;13.20;99.90;;;;;;5091980;28;20047;-47
2023/03/30 11:57:22;;;;;;;21.60;3.60;;;13.40;99.90;;;;;;5093439;28;20039;-49
2023/03/30 11:59:56;;;;;;;19.40;3.85;;;13.70;99.90;;;;;;5093284;28;20036;-48
2023/03/30 12:02:33;;;;;;;20.65;3.88;;;13.80;99.90;;;;;;5093187;28;20119;-50
2023/03/30 12:05:33;;;;;;;20.83;3.72;;;13.90;99.90;;;;;;5092984;28;20442;-49
2023/03/30 12:08:01;;;;;;;19.58;3.55;;;14.10;99.90;;;;;;5093038;28;20051;-52
2023/03/30 12:10:31;;;;;;;21.45;4.18;;;14.00;99.90;;;;;;5092894;28;20040;-51
2023/03/30 12:12:57;;;;;;;24.02;4.82;;;13.90;99.90;;;;;;5093104;28;20043;-47
2023/03/30 12:15:50;;;;;;;23.17;3.97;;;13.70;99.90;;;;;;5092730;28;20407;-48
2023/03/30 12:18:35;;;;;;;20.20;4.13;;;13.90;99.90;;;;;;5093048;28;20040;-47
2023/03/30 12:21:09;;;;;;;20.80;4.00;;;14.00;99.90;;;;;;5091425;28;20489;-51
2023/03/30 12:23:51;;;;;;;20.02;4.07;;;13.80;99.90;;;;;;5092876;28;20127;-48
2023/03/30 12:26:23;;;;;;;16.67;4.00;;;13.90;99.90;;;;;;5092943;28;20079;-51
2023/03/30 12:28:52;;;;;;;;;;;13.60;99.90;;;;;;5092078;28;20388;-48
2023/03/30 12:31:18;;;;;;;18.45;3.45;;;13.60;99.90;;;;;;5092579;28;19923;-50
2023/03/30 12:33:49;;;;;;;21.42;4.00;;;13.50;99.90;;;;;;5091162;28;20119;-48
2023/03/30 12:36:27;;;;;;;17.60;4.10;;;13.50;99.90;;;;;;5089220;28;20082;-51
2023/03/30 12:38:56;;;;;;;21.02;4.00;;;13.50;99.90;;;;;;5075199;28;20121;-50
2023/03/30 12:41:25;;;;;;;19.80;3.33;;;13.80;99.90;;;;;;5070579;28;20386;-52
2023/03/30 12:44:13;;;;;;;23.30;3.78;;;13.90;99.90;;;;;;5072257;28;20076;-48
2023/03/30 12:46:58;;;;;;;23.67;3.50;;;13.80;99.90;;;;;;5072550;28;20052;-50
2023/03/30 12:49:32;;;;;;;15.35;3.38;;;14.20;99.90;;;;;;5085177;28;20040;-48
2023/03/30 12:52:16;;;;;;;17.88;3.40;;;14.00;99.90;;;;;;5089052;28;20357;-49
2023/03/30 12:55:06;;;;;;;22.70;3.88;;;14.00;99.90;;;;;;5090558;28;20048;-56
2023/03/30 12:57:50;;;;;;;20.52;3.53;;;14.10;99.90;;;;;;5092469;28;20050;-51
2023/03/30 13:00:35;;;;;;;19.85;3.60;;;14.20;99.90;;;;;;5092257;28;20050;-48